sensor_id;sensor_type;location;lat;lon;timestamp;temperature;humidity
22290;DHT22;11313;50.116;8.424;2023-05-14T00:00:01;23.50;50.20
22290;DHT22;11313;50.116;8.424;2023-05-14T00:02:28;23.50;50.30
22290;DHT22;11313;50.116;8.424;2023-05-14T00:04:56;23.30;50.10
22290;DHT22;11313;50.116;8.424;2023-05-14T00:07:24;24.00;50.50
22290;DHT22;11313;50.116;8.424;2023-05-14T00:09:57;23.40;50.20
22290;DHT22;11313;50.116;8.424;2023-05-14T00:12:23;23.50;50.30
22290;DHT22;11313;50.116;8.424;2023-05-14T00:14:49;23.40;50.20
22290;DHT22;11313;50.116;8.424;2023-05-14T00:17:15;23.40;50.20
22290;DHT22;11313;50.116;8.424;2023-05-14T00:19:43;23.40;50.20
22290;DHT22;11313;50.116;8.424;2023-05-14T00:22:12;23.60;50.30
22290;DHT22;11313;50.116;8.424;2023-05-14T00:24:38;23.40;50.20
22290;DHT22;11313;50.116;8.424;2023-05-14T00:27:03;23.40;50.20
22290;DHT22;11313;50.116;8.424;2023-05-14T00:29:29;23.50;50.20
22290;DHT22;11313;50.116;8.424;2023-05-14T00:31:57;23.40;50.20
22290;DHT22;11313;50.116;8.424;2023-05-14T00:34:23;23.40;50.20
22290;DHT22;11313;50.116;8.424;2023-05-14T00:36:50;23.60;50.30
22290;DHT22;11313;50.116;8.424;2023-05-14T00:39:18;23.50;50.20
22290;DHT22;11313;50.116;8.424;2023-05-14T00:41:44;23.60;50.30
22290;DHT22;11313;50.116;8.424;2023-05-14T00:44:09;23.30;50.10
22290;DHT22;11313;50.116;8.424;2023-05-14T00:46:38;23.40;50.20
22290;DHT22;11313;50.116;8.424;2023-05-14T00:49:03;23.40;50.20
22290;DHT22;11313;50.116;8.424;2023-05-14T00:51:29;23.40;50.20
22290;DHT22;11313;50.116;8.424;2023-05-14T00:53:55;23.60;50.30
22290;DHT22;11313;50.116;8.424;2023-05-14T00:56:21;23.40;50.20
22290;DHT22;11313;50.116;8.424;2023-05-14T00:58:46;23.40;50.20
22290;DHT22;11313;50.116;8.424;2023-05-14T01:01:15;23.40;50.20
22290;DHT22;11313;50.116;8.424;2023-05-14T01:03:43;23.60;50.20
22290;DHT22;11313;50.116;8.424;2023-05-14T01:06:23;23.40;50.20
22290;DHT22;11313;50.116;8.424;2023-05-14T01:09:35;23.40;50.90
22290;DHT22;11313;50.116;8.424;2023-05-14T01:12:08;23.40;50.20
22290;DHT22;11313;50.116;8.424;2023-05-14T01:14:57;23.40;50.20
22290;DHT22;11313;50.116;8.424;2023-05-14T01:17:27;23.40;50.20
22290;DHT22;11313;50.116;8.424;2023-05-14T01:19:57;23.40;50.20
22290;DHT22;11313;50.116;8.424;2023-05-14T01:22:24;23.50;50.20
22290;DHT22;11313;50.116;8.424;2023-05-14T01:24:50;23.20;50.10
22290;DHT22;11313;50.116;8.424;2023-05-14T01:27:33;23.40;50.20
22290;DHT22;11313;50.116;8.424;2023-05-14T01:30:08;23.50;50.20
22290;DHT22;11313;50.116;8.424;2023-05-14T01:32:36;23.40;50.20
22290;DHT22;11313;50.116;8.424;2023-05-14T01:35:05;23.40;50.20
22290;DHT22;11313;50.116;8.424;2023-05-14T01:37:39;23.40;50.20
22290;DHT22;11313;50.116;8.424;2023-05-14T01:40:10;23.40;50.10
22290;DHT22;11313;50.116;8.424;2023-05-14T01:42:39;23.40;50.20
22290;DHT22;11313;50.116;8.424;2023-05-14T01:45:05;23.40;50.20
22290;DHT22;11313;50.116;8.424;2023-05-14T01:47:31;23.40;50.10
22290;DHT22;11313;50.116;8.424;2023-05-14T01:50:02;23.30;50.10
22290;DHT22;11313;50.116;8.424;2023-05-14T01:52:30;23.40;50.10
22290;DHT22;11313;50.116;8.424;2023-05-14T01:54:58;23.30;50.10
22290;DHT22;11313;50.116;8.424;2023-05-14T01:57:24;23.40;50.10
22290;DHT22;11313;50.116;8.424;2023-05-14T01:59:50;23.40;50.10
22290;DHT22;11313;50.116;8.424;2023-05-14T02:02:22;23.30;50.00
22290;DHT22;11313;50.116;8.424;2023-05-14T02:04:52;23.40;50.10
22290;DHT22;11313;50.116;8.424;2023-05-14T02:07:20;23.40;50.10
22290;DHT22;11313;50.116;8.424;2023-05-14T02:09:50;23.40;50.10
22290;DHT22;11313;50.116;8.424;2023-05-14T02:12:16;23.40;50.00
22290;DHT22;11313;50.116;8.424;2023-05-14T02:14:44;23.40;50.00
22290;DHT22;11313;50.116;8.424;2023-05-14T02:17:14;23.50;50.10
22290;DHT22;11313;50.116;8.424;2023-05-14T02:19:44;23.40;50.00
22290;DHT22;11313;50.116;8.424;2023-05-14T02:22:10;23.40;50.00
22290;DHT22;11313;50.116;8.424;2023-05-14T02:24:41;23.30;49.90
22290;DHT22;11313;50.116;8.424;2023-05-14T02:27:09;23.40;49.90
22290;DHT22;11313;50.116;8.424;2023-05-14T02:29:37;23.50;50.00
22290;DHT22;11313;50.116;8.424;2023-05-14T02:32:12;23.60;50.00
22290;DHT22;11313;50.116;8.424;2023-05-14T02:34:48;23.50;49.90
22290;DHT22;11313;50.116;8.424;2023-05-14T02:37:16;23.60;49.90
22290;DHT22;11313;50.116;8.424;2023-05-14T02:39:58;23.40;49.80
22290;DHT22;11313;50.116;8.424;2023-05-14T02:42:36;23.50;49.90
22290;DHT22;11313;50.116;8.424;2023-05-14T02:45:02;23.30;49.60
22290;DHT22;11313;50.116;8.424;2023-05-14T02:47:38;23.50;49.80
22290;DHT22;11313;50.116;8.424;2023-05-14T02:50:26;23.70;49.90
22290;DHT22;11313;50.116;8.424;2023-05-14T02:52:54;23.50;49.70
22290;DHT22;11313;50.116;8.424;2023-05-14T02:55:22;23.50;49.70
22290;DHT22;11313;50.116;8.424;2023-05-14T02:57:58;23.60;49.70
22290;DHT22;11313;50.116;8.424;2023-05-14T03:00:23;23.80;49.80
22290;DHT22;11313;50.116;8.424;2023-05-14T03:02:59;23.60;49.70
22290;DHT22;11313;50.116;8.424;2023-05-14T03:05:24;23.60;49.70
22290;DHT22;11313;50.116;8.424;2023-05-14T03:07:50;23.60;49.60
22290;DHT22;11313;50.116;8.424;2023-05-14T03:10:20;23.40;49.50
22290;DHT22;11313;50.116;8.424;2023-05-14T03:13:00;23.60;49.60
22290;DHT22;11313;50.116;8.424;2023-05-14T03:15:28;23.60;49.60
22290;DHT22;11313;50.116;8.424;2023-05-14T03:17:56;23.60;49.60
22290;DHT22;11313;50.116;8.424;2023-05-14T03:20:29;23.60;49.60
22290;DHT22;11313;50.116;8.424;2023-05-14T03:22:54;23.50;49.50
22290;DHT22;11313;50.116;8.424;2023-05-14T03:25:22;23.60;49.50
22290;DHT22;11313;50.116;8.424;2023-05-14T03:27:51;23.60;49.50
22290;DHT22;11313;50.116;8.424;2023-05-14T03:30:19;23.60;49.50
22290;DHT22;11313;50.116;8.424;2023-05-14T03:32:52;23.60;49.50
22290;DHT22;11313;50.116;8.424;2023-05-14T03:35:20;23.60;49.50
22290;DHT22;11313;50.116;8.424;2023-05-14T03:37:46;23.60;49.50
22290;DHT22;11313;50.116;8.424;2023-05-14T03:40:26;23.60;49.40
22290;DHT22;11313;50.116;8.424;2023-05-14T03:43:02;23.60;49.40
22290;DHT22;11313;50.116;8.424;2023-05-14T03:45:32;23.50;49.40
22290;DHT22;11313;50.116;8.424;2023-05-14T03:48:08;23.60;49.40
22290;DHT22;11313;50.116;8.424;2023-05-14T03:50:58;23.60;49.40
22290;DHT22;11313;50.116;8.424;2023-05-14T03:53:35;23.60;49.40
22290;DHT22;11313;50.116;8.424;2023-05-14T03:56:08;23.60;49.40
22290;DHT22;11313;50.116;8.424;2023-05-14T03:59:03;23.50;49.30
22290;DHT22;11313;50.116;8.424;2023-05-14T04:01:40;23.60;49.40
22290;DHT22;11313;50.116;8.424;2023-05-14T04:04:15;23.60;49.40
22290;DHT22;11313;50.116;8.424;2023-05-14T04:06:50;23.70;49.40
22290;DHT22;11313;50.116;8.424;2023-05-14T04:09:28;23.60;49.30
22290;DHT22;11313;50.116;8.424;2023-05-14T04:11:53;24.00;49.60
22290;DHT22;11313;50.116;8.424;2023-05-14T04:14:29;23.60;49.30
22290;DHT22;11313;50.116;8.424;2023-05-14T04:16:57;23.60;49.30
22290;DHT22;11313;50.116;8.424;2023-05-14T04:19:34;23.60;49.30
22290;DHT22;11313;50.116;8.424;2023-05-14T04:22:16;23.40;49.30
22290;DHT22;11313;50.116;8.424;2023-05-14T04:24:55;23.50;49.20
22290;DHT22;11313;50.116;8.424;2023-05-14T04:27:25;23.60;49.30
22290;DHT22;11313;50.116;8.424;2023-05-14T04:29:59;23.60;49.40
22290;DHT22;11313;50.116;8.424;2023-05-14T04:32:37;23.60;49.30
22290;DHT22;11313;50.116;8.424;2023-05-14T04:35:13;23.50;49.30
22290;DHT22;11313;50.116;8.424;2023-05-14T04:38:01;23.60;49.30
22290;DHT22;11313;50.116;8.424;2023-05-14T04:40:37;23.60;49.30
22290;DHT22;11313;50.116;8.424;2023-05-14T04:43:26;23.70;49.30
22290;DHT22;11313;50.116;8.424;2023-05-14T04:46:09;23.60;49.30
22290;DHT22;11313;50.116;8.424;2023-05-14T04:48:37;23.60;49.40
22290;DHT22;11313;50.116;8.424;2023-05-14T04:51:13;23.60;49.30
22290;DHT22;11313;50.116;8.424;2023-05-14T04:53:46;23.50;49.30
22290;DHT22;11313;50.116;8.424;2023-05-14T04:56:22;23.50;49.20
22290;DHT22;11313;50.116;8.424;2023-05-14T04:59:05;23.60;49.30
22290;DHT22;11313;50.116;8.424;2023-05-14T05:01:49;23.50;49.20
22290;DHT22;11313;50.116;8.424;2023-05-14T05:56:58;23.60;49.40
22290;DHT22;11313;50.116;8.424;2023-05-14T05:59:24;23.60;49.40
22290;DHT22;11313;50.116;8.424;2023-05-14T06:01:49;23.70;49.50
22290;DHT22;11313;50.116;8.424;2023-05-14T06:04:15;23.70;49.50
22290;DHT22;11313;50.116;8.424;2023-05-14T06:06:40;23.60;49.40
22290;DHT22;11313;50.116;8.424;2023-05-14T06:09:06;23.70;49.50
22290;DHT22;11313;50.116;8.424;2023-05-14T06:11:33;23.60;49.60
22290;DHT22;11313;50.116;8.424;2023-05-14T06:13:59;23.70;49.50
22290;DHT22;11313;50.116;8.424;2023-05-14T06:16:24;23.70;49.50
22290;DHT22;11313;50.116;8.424;2023-05-14T06:18:50;23.70;49.50
22290;DHT22;11313;50.116;8.424;2023-05-14T06:21:17;23.60;49.50
22290;DHT22;11313;50.116;8.424;2023-05-14T06:23:43;24.10;49.70
22290;DHT22;11313;50.116;8.424;2023-05-14T06:26:08;23.60;49.50
22290;DHT22;11313;50.116;8.424;2023-05-14T06:28:34;23.60;49.50
22290;DHT22;11313;50.116;8.424;2023-05-14T06:30:59;23.50;49.50
22290;DHT22;11313;50.116;8.424;2023-05-14T06:33:25;23.70;49.60
22290;DHT22;11313;50.116;8.424;2023-05-14T06:35:56;23.70;49.60
22290;DHT22;11313;50.116;8.424;2023-05-14T06:38:22;23.70;49.60
22290;DHT22;11313;50.116;8.424;2023-05-14T06:40:48;23.70;49.60
22290;DHT22;11313;50.116;8.424;2023-05-14T06:43:13;23.70;49.60
22290;DHT22;11313;50.116;8.424;2023-05-14T06:45:39;23.70;49.60
22290;DHT22;11313;50.116;8.424;2023-05-14T06:48:04;23.70;49.60
22290;DHT22;11313;50.116;8.424;2023-05-14T06:50:30;23.70;49.60
22290;DHT22;11313;50.116;8.424;2023-05-14T06:52:55;23.70;49.60
22290;DHT22;11313;50.116;8.424;2023-05-14T06:55:21;23.60;49.60
22290;DHT22;11313;50.116;8.424;2023-05-14T06:57:46;23.70;49.60
22290;DHT22;11313;50.116;8.424;2023-05-14T07:00:12;23.60;49.50
22290;DHT22;11313;50.116;8.424;2023-05-14T07:02:38;23.60;49.50
22290;DHT22;11313;50.116;8.424;2023-05-14T07:05:04;23.60;49.50
22290;DHT22;11313;50.116;8.424;2023-05-14T07:07:30;23.70;49.60
22290;DHT22;11313;50.116;8.424;2023-05-14T07:09:55;23.70;49.60
22290;DHT22;11313;50.116;8.424;2023-05-14T07:12:21;23.60;49.50
22290;DHT22;11313;50.116;8.424;2023-05-14T07:14:46;23.60;49.50
22290;DHT22;11313;50.116;8.424;2023-05-14T07:17:12;23.70;49.50
22290;DHT22;11313;50.116;8.424;2023-05-14T07:19:37;23.60;49.50
22290;DHT22;11313;50.116;8.424;2023-05-14T07:22:03;23.70;49.50
22290;DHT22;11313;50.116;8.424;2023-05-14T07:24:28;23.60;49.40
22290;DHT22;11313;50.116;8.424;2023-05-14T07:26:54;23.70;49.50
22290;DHT22;11313;50.116;8.424;2023-05-14T07:29:21;23.70;49.50
22290;DHT22;11313;50.116;8.424;2023-05-14T07:31:47;23.60;49.40
22290;DHT22;11313;50.116;8.424;2023-05-14T07:34:12;23.70;49.40
22290;DHT22;11313;50.116;8.424;2023-05-14T07:36:38;23.60;49.40
22290;DHT22;11313;50.116;8.424;2023-05-14T07:39:04;23.60;49.40
22290;DHT22;11313;50.116;8.424;2023-05-14T07:41:29;23.60;49.40
22290;DHT22;11313;50.116;8.424;2023-05-14T07:43:55;23.60;49.40
22290;DHT22;11313;50.116;8.424;2023-05-14T07:46:20;23.60;49.40
22290;DHT22;11313;50.116;8.424;2023-05-14T07:48:46;23.60;49.40
22290;DHT22;11313;50.116;8.424;2023-05-14T07:51:11;23.60;49.40
22290;DHT22;11313;50.116;8.424;2023-05-14T07:53:37;23.70;49.40
22290;DHT22;11313;50.116;8.424;2023-05-14T07:56:03;23.70;49.40
22290;DHT22;11313;50.116;8.424;2023-05-14T07:58:28;23.60;49.30
22290;DHT22;11313;50.116;8.424;2023-05-14T08:00:54;24.00;49.50
22290;DHT22;11313;50.116;8.424;2023-05-14T08:03:21;23.60;49.30
22290;DHT22;11313;50.116;8.424;2023-05-14T08:05:46;23.70;49.30
22290;DHT22;11313;50.116;8.424;2023-05-14T08:08:12;23.50;49.20
22290;DHT22;11313;50.116;8.424;2023-05-14T08:10:37;23.80;49.30
22290;DHT22;11313;50.116;8.424;2023-05-14T08:13:03;24.10;49.50
22290;DHT22;11313;50.116;8.424;2023-05-14T08:15:29;23.60;49.20
22290;DHT22;11313;50.116;8.424;2023-05-14T08:17:55;23.80;49.30
22290;DHT22;11313;50.116;8.424;2023-05-14T08:20:20;23.60;49.20
22290;DHT22;11313;50.116;8.424;2023-05-14T08:22:46;23.60;49.20
22290;DHT22;11313;50.116;8.424;2023-05-14T08:25:12;23.60;49.20
22290;DHT22;11313;50.116;8.424;2023-05-14T08:27:37;23.60;49.20
22290;DHT22;11313;50.116;8.424;2023-05-14T08:30:03;23.40;49.00
22290;DHT22;11313;50.116;8.424;2023-05-14T08:32:29;23.60;49.20
22290;DHT22;11313;50.116;8.424;2023-05-14T08:34:55;23.60;49.20
22290;DHT22;11313;50.116;8.424;2023-05-14T08:37:20;23.60;49.10
22290;DHT22;11313;50.116;8.424;2023-05-14T08:39:46;23.70;49.20
22290;DHT22;11313;50.116;8.424;2023-05-14T08:42:12;23.60;49.20
22290;DHT22;11313;50.116;8.424;2023-05-14T08:44:47;23.60;49.10
22290;DHT22;11313;50.116;8.424;2023-05-14T08:47:15;23.60;49.10
22290;DHT22;11313;50.116;8.424;2023-05-14T08:49:43;23.60;49.10
22290;DHT22;11313;50.116;8.424;2023-05-14T08:52:11;23.60;49.10
22290;DHT22;11313;50.116;8.424;2023-05-14T08:54:37;23.60;49.20
22290;DHT22;11313;50.116;8.424;2023-05-14T08:57:03;23.60;49.10
22290;DHT22;11313;50.116;8.424;2023-05-14T08:59:29;23.60;49.10
22290;DHT22;11313;50.116;8.424;2023-05-14T09:01:55;23.60;49.10
22290;DHT22;11313;50.116;8.424;2023-05-14T09:04:23;23.80;49.10
22290;DHT22;11313;50.116;8.424;2023-05-14T09:06:51;23.60;49.10
22290;DHT22;11313;50.116;8.424;2023-05-14T09:09:17;23.60;49.00
22290;DHT22;11313;50.116;8.424;2023-05-14T09:11:46;23.60;49.00
22290;DHT22;11313;50.116;8.424;2023-05-14T09:14:11;23.60;49.10
22290;DHT22;11313;50.116;8.424;2023-05-14T09:16:38;23.60;49.10
22290;DHT22;11313;50.116;8.424;2023-05-14T09:19:06;23.70;49.10
22290;DHT22;11313;50.116;8.424;2023-05-14T09:21:33;23.50;49.00
22290;DHT22;11313;50.116;8.424;2023-05-14T09:23:59;23.60;49.00
22290;DHT22;11313;50.116;8.424;2023-05-14T09:26:25;23.60;49.70
22290;DHT22;11313;50.116;8.424;2023-05-14T09:28:55;23.70;49.00
22290;DHT22;11313;50.116;8.424;2023-05-14T09:31:21;23.60;49.00
22290;DHT22;11313;50.116;8.424;2023-05-14T09:33:50;23.60;49.00
22290;DHT22;11313;50.116;8.424;2023-05-14T09:36:16;23.60;48.90
22290;DHT22;11313;50.116;8.424;2023-05-14T09:38:42;23.60;48.90
22290;DHT22;11313;50.116;8.424;2023-05-14T09:41:07;23.60;49.00
22290;DHT22;11313;50.116;8.424;2023-05-14T09:43:33;23.60;49.00
22290;DHT22;11313;50.116;8.424;2023-05-14T09:45:58;23.60;49.00
22290;DHT22;11313;50.116;8.424;2023-05-14T09:48:24;23.60;49.00
22290;DHT22;11313;50.116;8.424;2023-05-14T09:50:50;23.60;49.00
22290;DHT22;11313;50.116;8.424;2023-05-14T09:53:18;23.60;48.90
22290;DHT22;11313;50.116;8.424;2023-05-14T09:55:44;23.60;48.90
22290;DHT22;11313;50.116;8.424;2023-05-14T09:58:10;23.60;48.90
22290;DHT22;11313;50.116;8.424;2023-05-14T10:00:38;23.60;48.90
22290;DHT22;11313;50.116;8.424;2023-05-14T10:03:07;23.60;48.90
22290;DHT22;11313;50.116;8.424;2023-05-14T10:05:34;23.70;49.00
22290;DHT22;11313;50.116;8.424;2023-05-14T10:08:04;23.70;49.00
22290;DHT22;11313;50.116;8.424;2023-05-14T10:10:32;23.60;48.90
22290;DHT22;11313;50.116;8.424;2023-05-14T10:13:03;23.60;48.90
22290;DHT22;11313;50.116;8.424;2023-05-14T10:15:35;23.60;48.90
22290;DHT22;11313;50.116;8.424;2023-05-14T10:18:09;23.60;48.90
22290;DHT22;11313;50.116;8.424;2023-05-14T10:20:37;23.60;48.90
22290;DHT22;11313;50.116;8.424;2023-05-14T10:23:03;23.60;48.90
22290;DHT22;11313;50.116;8.424;2023-05-14T10:25:29;23.60;48.90
22290;DHT22;11313;50.116;8.424;2023-05-14T10:27:55;23.60;48.90
22290;DHT22;11313;50.116;8.424;2023-05-14T10:30:21;23.60;48.90
22290;DHT22;11313;50.116;8.424;2023-05-14T10:33:07;23.60;48.90
22290;DHT22;11313;50.116;8.424;2023-05-14T10:35:59;23.60;48.90
22290;DHT22;11313;50.116;8.424;2023-05-14T10:38:29;23.60;48.90
22290;DHT22;11313;50.116;8.424;2023-05-14T10:41:09;23.60;48.90
22290;DHT22;11313;50.116;8.424;2023-05-14T10:43:39;23.60;48.90
22290;DHT22;11313;50.116;8.424;2023-05-14T10:46:07;23.60;49.00
22290;DHT22;11313;50.116;8.424;2023-05-14T10:48:33;23.60;48.90
22290;DHT22;11313;50.116;8.424;2023-05-14T10:51:00;23.60;48.90
22290;DHT22;11313;50.116;8.424;2023-05-14T10:53:40;23.60;48.90
22290;DHT22;11313;50.116;8.424;2023-05-14T10:56:13;23.60;49.00
22290;DHT22;11313;50.116;8.424;2023-05-14T10:58:42;23.70;49.00
22290;DHT22;11313;50.116;8.424;2023-05-14T11:01:10;23.60;49.00
22290;DHT22;11313;50.116;8.424;2023-05-14T11:03:41;23.60;49.00
22290;DHT22;11313;50.116;8.424;2023-05-14T11:06:08;23.60;49.00
22290;DHT22;11313;50.116;8.424;2023-05-14T11:08:34;23.60;49.00
22290;DHT22;11313;50.116;8.424;2023-05-14T11:11:01;23.60;49.00
22290;DHT22;11313;50.116;8.424;2023-05-14T11:13:27;23.80;49.10
22290;DHT22;11313;50.116;8.424;2023-05-14T11:15:52;23.60;49.00
22290;DHT22;11313;50.116;8.424;2023-05-14T11:18:28;23.60;49.00
22290;DHT22;11313;50.116;8.424;2023-05-14T11:20:59;23.60;49.00
22290;DHT22;11313;50.116;8.424;2023-05-14T11:23:24;23.60;49.00
22290;DHT22;11313;50.116;8.424;2023-05-14T11:25:51;23.60;49.60
22290;DHT22;11313;50.116;8.424;2023-05-14T11:28:22;23.60;49.00
22290;DHT22;11313;50.116;8.424;2023-05-14T11:30:52;23.60;49.00
22290;DHT22;11313;50.116;8.424;2023-05-14T11:33:18;23.60;49.00
22290;DHT22;11313;50.116;8.424;2023-05-14T11:35:47;23.60;49.00
22290;DHT22;11313;50.116;8.424;2023-05-14T11:38:14;23.60;49.70
22290;DHT22;11313;50.116;8.424;2023-05-14T11:40:40;23.60;49.00
22290;DHT22;11313;50.116;8.424;2023-05-14T11:43:06;23.60;49.00
22290;DHT22;11313;50.116;8.424;2023-05-14T11:45:32;23.60;49.10
22290;DHT22;11313;50.116;8.424;2023-05-14T11:47:58;23.60;49.00
22290;DHT22;11313;50.116;8.424;2023-05-14T11:50:23;23.60;49.00
22290;DHT22;11313;50.116;8.424;2023-05-14T11:52:49;23.60;49.10
22290;DHT22;11313;50.116;8.424;2023-05-14T11:55:16;23.60;49.00
22290;DHT22;11313;50.116;8.424;2023-05-14T11:57:41;23.60;49.00
22290;DHT22;11313;50.116;8.424;2023-05-14T12:00:09;23.60;49.10
22290;DHT22;11313;50.116;8.424;2023-05-14T12:02:37;23.60;49.10
22290;DHT22;11313;50.116;8.424;2023-05-14T12:05:07;23.60;49.10
22290;DHT22;11313;50.116;8.424;2023-05-14T12:07:33;23.60;49.10
22290;DHT22;11313;50.116;8.424;2023-05-14T12:10:01;23.60;49.10
22290;DHT22;11313;50.116;8.424;2023-05-14T12:12:34;23.60;49.10
22290;DHT22;11313;50.116;8.424;2023-05-14T12:15:00;23.60;49.10
22290;DHT22;11313;50.116;8.424;2023-05-14T12:17:25;23.50;49.10
22290;DHT22;11313;50.116;8.424;2023-05-14T12:19:51;23.60;49.10
22290;DHT22;11313;50.116;8.424;2023-05-14T12:22:19;23.70;49.20
22290;DHT22;11313;50.116;8.424;2023-05-14T12:24:58;23.60;49.10
22290;DHT22;11313;50.116;8.424;2023-05-14T12:27:25;23.60;49.20
22290;DHT22;11313;50.116;8.424;2023-05-14T12:30:17;23.60;49.10
22290;DHT22;11313;50.116;8.424;2023-05-14T12:32:43;23.70;49.20
22290;DHT22;11313;50.116;8.424;2023-05-14T12:35:09;23.60;49.20
22290;DHT22;11313;50.116;8.424;2023-05-14T12:37:35;23.60;49.10
22290;DHT22;11313;50.116;8.424;2023-05-14T12:40:03;23.60;49.10
22290;DHT22;11313;50.116;8.424;2023-05-14T12:42:33;23.60;49.50
22290;DHT22;11313;50.116;8.424;2023-05-14T12:44:58;23.60;49.20
22290;DHT22;11313;50.116;8.424;2023-05-14T12:47:29;23.60;49.10
22290;DHT22;11313;50.116;8.424;2023-05-14T12:49:55;23.60;49.10
22290;DHT22;11313;50.116;8.424;2023-05-14T12:52:20;23.60;49.20
22290;DHT22;11313;50.116;8.424;2023-05-14T12:54:46;23.60;49.20
22290;DHT22;11313;50.116;8.424;2023-05-14T12:57:11;23.60;49.20
22290;DHT22;11313;50.116;8.424;2023-05-14T12:59:37;23.60;49.20
22290;DHT22;11313;50.116;8.424;2023-05-14T13:02:03;23.60;49.20
22290;DHT22;11313;50.116;8.424;2023-05-14T13:04:29;23.60;49.20
22290;DHT22;11313;50.116;8.424;2023-05-14T13:06:54;23.60;49.20
22290;DHT22;11313;50.116;8.424;2023-05-14T13:09:20;23.60;49.20
22290;DHT22;11313;50.116;8.424;2023-05-14T13:11:45;23.60;49.20
22290;DHT22;11313;50.116;8.424;2023-05-14T13:14:11;23.60;49.10
22290;DHT22;11313;50.116;8.424;2023-05-14T13:16:36;23.60;49.20
22290;DHT22;11313;50.116;8.424;2023-05-14T13:19:02;23.60;49.10
22290;DHT22;11313;50.116;8.424;2023-05-14T13:21:27;23.60;49.20
22290;DHT22;11313;50.116;8.424;2023-05-14T13:23:53;23.60;49.10
22290;DHT22;11313;50.116;8.424;2023-05-14T13:26:18;23.70;49.20
22290;DHT22;11313;50.116;8.424;2023-05-14T13:28:44;23.60;49.10
22290;DHT22;11313;50.116;8.424;2023-05-14T13:31:11;23.60;49.10
22290;DHT22;11313;50.116;8.424;2023-05-14T13:33:39;23.60;49.10
22290;DHT22;11313;50.116;8.424;2023-05-14T13:36:07;23.60;49.10
22290;DHT22;11313;50.116;8.424;2023-05-14T13:38:33;23.60;49.10
22290;DHT22;11313;50.116;8.424;2023-05-14T13:40:59;23.50;49.00
22290;DHT22;11313;50.116;8.424;2023-05-14T13:43:28;23.60;49.10
22290;DHT22;11313;50.116;8.424;2023-05-14T13:45:54;23.60;49.10
22290;DHT22;11313;50.116;8.424;2023-05-14T13:48:20;23.60;49.10
22290;DHT22;11313;50.116;8.424;2023-05-14T13:50:46;23.60;49.10
22290;DHT22;11313;50.116;8.424;2023-05-14T13:53:12;23.60;49.10
22290;DHT22;11313;50.116;8.424;2023-05-14T13:55:37;23.60;49.10
22290;DHT22;11313;50.116;8.424;2023-05-14T13:58:03;23.60;49.10
22290;DHT22;11313;50.116;8.424;2023-05-14T14:00:28;23.60;49.10
22290;DHT22;11313;50.116;8.424;2023-05-14T14:02:54;23.60;49.10
22290;DHT22;11313;50.116;8.424;2023-05-14T14:05:20;24.10;49.30
22290;DHT22;11313;50.116;8.424;2023-05-14T14:07:45;23.80;49.20
22290;DHT22;11313;50.116;8.424;2023-05-14T14:10:11;23.60;49.10
22290;DHT22;11313;50.116;8.424;2023-05-14T14:12:36;23.60;49.10
22290;DHT22;11313;50.116;8.424;2023-05-14T14:15:03;23.60;49.10
22290;DHT22;11313;50.116;8.424;2023-05-14T14:17:29;23.60;49.10
22290;DHT22;11313;50.116;8.424;2023-05-14T14:19:54;23.60;49.10
22290;DHT22;11313;50.116;8.424;2023-05-14T14:22:20;23.80;49.20
22290;DHT22;11313;50.116;8.424;2023-05-14T14:24:45;23.70;49.10
22290;DHT22;11313;50.116;8.424;2023-05-14T14:27:11;23.60;49.10
22290;DHT22;11313;50.116;8.424;2023-05-14T14:29:36;23.50;49.00
22290;DHT22;11313;50.116;8.424;2023-05-14T14:32:02;23.70;49.20
22290;DHT22;11313;50.116;8.424;2023-05-14T14:34:28;23.70;49.20
22290;DHT22;11313;50.116;8.424;2023-05-14T14:36:53;23.70;49.20
22290;DHT22;11313;50.116;8.424;2023-05-14T14:39:19;23.70;49.20
22290;DHT22;11313;50.116;8.424;2023-05-14T14:41:45;23.60;49.20
22290;DHT22;11313;50.116;8.424;2023-05-14T14:44:11;23.60;49.10
22290;DHT22;11313;50.116;8.424;2023-05-14T14:46:37;23.60;49.20
22290;DHT22;11313;50.116;8.424;2023-05-14T14:49:02;23.60;49.10
22290;DHT22;11313;50.116;8.424;2023-05-14T14:51:28;23.70;49.20
22290;DHT22;11313;50.116;8.424;2023-05-14T14:53:54;23.70;49.20
22290;DHT22;11313;50.116;8.424;2023-05-14T14:56:20;23.70;49.20
22290;DHT22;11313;50.116;8.424;2023-05-14T14:58:45;23.60;49.10
22290;DHT22;11313;50.116;8.424;2023-05-14T15:01:11;23.70;49.20
22290;DHT22;11313;50.116;8.424;2023-05-14T15:03:36;23.70;49.20
22290;DHT22;11313;50.116;8.424;2023-05-14T15:06:02;23.60;49.10
22290;DHT22;11313;50.116;8.424;2023-05-14T15:08:27;23.60;49.10
22290;DHT22;11313;50.116;8.424;2023-05-14T15:10:57;23.50;49.10
22290;DHT22;11313;50.116;8.424;2023-05-14T15:13:23;23.60;49.10
22290;DHT22;11313;50.116;8.424;2023-05-14T15:15:49;23.70;49.20
22290;DHT22;11313;50.116;8.424;2023-05-14T15:18:16;23.70;49.20
22290;DHT22;11313;50.116;8.424;2023-05-14T15:20:42;23.60;49.10
22290;DHT22;11313;50.116;8.424;2023-05-14T15:23:07;23.60;49.10
22290;DHT22;11313;50.116;8.424;2023-05-14T15:25:33;23.60;49.10
22290;DHT22;11313;50.116;8.424;2023-05-14T15:27:58;23.40;49.00
22290;DHT22;11313;50.116;8.424;2023-05-14T15:30:24;23.80;49.20
22290;DHT22;11313;50.116;8.424;2023-05-14T15:32:49;23.70;49.20
22290;DHT22;11313;50.116;8.424;2023-05-14T15:35:15;23.60;49.20
22290;DHT22;11313;50.116;8.424;2023-05-14T15:37:42;23.70;49.30
22290;DHT22;11313;50.116;8.424;2023-05-14T15:40:08;23.70;49.30
22290;DHT22;11313;50.116;8.424;2023-05-14T15:42:35;23.70;49.40
22290;DHT22;11313;50.116;8.424;2023-05-14T15:45:01;23.70;49.40
22290;DHT22;11313;50.116;8.424;2023-05-14T15:47:26;23.70;49.50
22290;DHT22;11313;50.116;8.424;2023-05-14T15:49:52;23.70;49.50
22290;DHT22;11313;50.116;8.424;2023-05-14T15:52:18;23.70;49.60
22290;DHT22;11313;50.116;8.424;2023-05-14T15:54:47;23.70;49.60
22290;DHT22;11313;50.116;8.424;2023-05-14T15:57:13;23.70;49.60
22290;DHT22;11313;50.116;8.424;2023-05-14T15:59:39;23.50;49.60
22290;DHT22;11313;50.116;8.424;2023-05-14T16:02:04;23.70;49.70
22290;DHT22;11313;50.116;8.424;2023-05-14T16:04:30;23.70;49.70
22290;DHT22;11313;50.116;8.424;2023-05-14T16:07:03;23.70;49.70
22290;DHT22;11313;50.116;8.424;2023-05-14T16:09:29;23.80;49.80
22290;DHT22;11313;50.116;8.424;2023-05-14T16:11:54;23.70;49.80
22290;DHT22;11313;50.116;8.424;2023-05-14T16:14:20;23.70;50.00
22290;DHT22;11313;50.116;8.424;2023-05-14T16:16:47;23.70;49.90
22290;DHT22;11313;50.116;8.424;2023-05-14T16:19:13;23.80;50.00
22290;DHT22;11313;50.116;8.424;2023-05-14T16:21:38;23.90;50.00
22290;DHT22;11313;50.116;8.424;2023-05-14T16:24:04;23.50;49.80
22290;DHT22;11313;50.116;8.424;2023-05-14T16:26:30;23.70;49.90
22290;DHT22;11313;50.116;8.424;2023-05-14T16:28:56;24.10;50.10